sensor_id;sensor_type;location;lat;lon;timestamp;temperature;humidity
46562;DHT22;32289;42.688;23.330;2023-05-02T00:01:01;11.70;99.90
46562;DHT22;32289;42.688;23.330;2023-05-02T00:04:44;11.60;99.90
46562;DHT22;32289;42.688;23.330;2023-05-02T00:08:25;11.60;99.90
46562;DHT22;32289;42.688;23.330;2023-05-02T00:12:05;11.60;99.90
46562;DHT22;32289;42.688;23.330;2023-05-02T00:15:46;11.60;99.90
46562;DHT22;32289;42.688;23.330;2023-05-02T00:19:27;11.60;99.90
46562;DHT22;32289;42.688;23.330;2023-05-02T00:23:07;11.60;99.90
46562;DHT22;32289;42.688;23.330;2023-05-02T00:26:48;11.70;99.90
46562;DHT22;32289;42.688;23.330;2023-05-02T00:30:29;11.70;99.90
46562;DHT22;32289;42.688;23.330;2023-05-02T00:34:09;11.60;99.90
46562;DHT22;32289;42.688;23.330;2023-05-02T00:37:50;11.60;99.90
46562;DHT22;32289;42.688;23.330;2023-05-02T00:41:31;11.60;99.90
46562;DHT22;32289;42.688;23.330;2023-05-02T00:45:11;11.60;99.90
46562;DHT22;32289;42.688;23.330;2023-05-02T00:48:52;11.70;99.90
46562;DHT22;32289;42.688;23.330;2023-05-02T00:52:33;11.70;99.90
46562;DHT22;32289;42.688;23.330;2023-05-02T00:56:14;11.80;99.90
46562;DHT22;32289;42.688;23.330;2023-05-02T00:59:55;11.90;99.90
46562;DHT22;32289;42.688;23.330;2023-05-02T01:11:43;11.80;99.90
46562;DHT22;32289;42.688;23.330;2023-05-02T01:15:24;11.70;99.90
46562;DHT22;32289;42.688;23.330;2023-05-02T01:19:08;11.60;99.90
46562;DHT22;32289;42.688;23.330;2023-05-02T01:22:51;11.60;99.90
46562;DHT22;32289;42.688;23.330;2023-05-02T01:26:45;11.60;99.90
46562;DHT22;32289;42.688;23.330;2023-05-02T01:30:28;11.70;99.90
46562;DHT22;32289;42.688;23.330;2023-05-02T01:34:10;11.60;99.90
46562;DHT22;32289;42.688;23.330;2023-05-02T01:37:52;11.50;99.90
46562;DHT22;32289;42.688;23.330;2023-05-02T01:41:35;11.40;99.90
46562;DHT22;32289;42.688;23.330;2023-05-02T01:45:18;11.40;99.90
46562;DHT22;32289;42.688;23.330;2023-05-02T01:49:02;11.40;99.90
46562;DHT22;32289;42.688;23.330;2023-05-02T01:52:46;11.30;99.90
46562;DHT22;32289;42.688;23.330;2023-05-02T01:56:31;11.30;99.90
46562;DHT22;32289;42.688;23.330;2023-05-02T02:00:14;11.40;99.90
46562;DHT22;32289;42.688;23.330;2023-05-02T02:03:56;11.30;99.90
46562;DHT22;32289;42.688;23.330;2023-05-02T02:07:37;11.30;99.90
46562;DHT22;32289;42.688;23.330;2023-05-02T02:11:25;11.30;99.90
46562;DHT22;32289;42.688;23.330;2023-05-02T02:15:18;11.20;99.90
46562;DHT22;32289;42.688;23.330;2023-05-02T02:19:05;11.10;99.90
46562;DHT22;32289;42.688;23.330;2023-05-02T02:22:46;11.10;99.90
46562;DHT22;32289;42.688;23.330;2023-05-02T02:26:28;11.10;99.90
46562;DHT22;32289;42.688;23.330;2023-05-02T02:30:09;11.10;99.90
46562;DHT22;32289;42.688;23.330;2023-05-02T02:33:50;11.10;99.90
46562;DHT22;32289;42.688;23.330;2023-05-02T02:37:40;11.00;99.90
46562;DHT22;32289;42.688;23.330;2023-05-02T02:41:58;11.00;99.90
46562;DHT22;32289;42.688;23.330;2023-05-02T02:50:15;11.00;99.90
46562;DHT22;32289;42.688;23.330;2023-05-02T03:02:11;11.00;99.90
46562;DHT22;32289;42.688;23.330;2023-05-02T03:05:53;10.90;99.90
46562;DHT22;32289;42.688;23.330;2023-05-02T03:09:44;10.90;99.90
46562;DHT22;32289;42.688;23.330;2023-05-02T03:13:25;10.90;99.90
46562;DHT22;32289;42.688;23.330;2023-05-02T03:17:06;10.90;99.90
46562;DHT22;32289;42.688;23.330;2023-05-02T03:20:47;10.80;99.90
46562;DHT22;32289;42.688;23.330;2023-05-02T03:24:28;10.70;99.90
46562;DHT22;32289;42.688;23.330;2023-05-02T03:28:09;10.70;99.90
46562;DHT22;32289;42.688;23.330;2023-05-02T03:31:50;10.80;99.90
46562;DHT22;32289;42.688;23.330;2023-05-02T03:35:31;10.80;99.90
46562;DHT22;32289;42.688;23.330;2023-05-02T03:39:11;10.90;99.90
46562;DHT22;32289;42.688;23.330;2023-05-02T03:42:52;10.90;99.90
46562;DHT22;32289;42.688;23.330;2023-05-02T03:46:33;10.90;99.90
46562;DHT22;32289;42.688;23.330;2023-05-02T03:50:14;10.90;99.90
46562;DHT22;32289;42.688;23.330;2023-05-02T03:53:54;11.00;99.90
46562;DHT22;32289;42.688;23.330;2023-05-02T03:57:35;11.00;99.90
46562;DHT22;32289;42.688;23.330;2023-05-02T04:01:16;11.20;99.90
46562;DHT22;32289;42.688;23.330;2023-05-02T04:04:56;11.20;99.90
46562;DHT22;32289;42.688;23.330;2023-05-02T04:08:37;11.20;99.90
46562;DHT22;32289;42.688;23.330;2023-05-02T04:12:18;11.20;99.90
46562;DHT22;32289;42.688;23.330;2023-05-02T04:15:59;11.30;99.90
46562;DHT22;32289;42.688;23.330;2023-05-02T04:19:40;11.50;99.90
46562;DHT22;32289;42.688;23.330;2023-05-02T04:23:21;11.70;99.90
46562;DHT22;32289;42.688;23.330;2023-05-02T04:27:02;11.60;99.90
46562;DHT22;32289;42.688;23.330;2023-05-02T04:30:42;11.70;99.90
46562;DHT22;32289;42.688;23.330;2023-05-02T04:34:23;11.70;99.90
46562;DHT22;32289;42.688;23.330;2023-05-02T04:38:04;11.70;99.90
46562;DHT22;32289;42.688;23.330;2023-05-02T04:41:45;11.80;99.90
46562;DHT22;32289;42.688;23.330;2023-05-02T04:45:26;12.00;99.90
46562;DHT22;32289;42.688;23.330;2023-05-02T04:49:07;12.20;99.90
46562;DHT22;32289;42.688;23.330;2023-05-02T04:52:47;12.70;99.90
46562;DHT22;32289;42.688;23.330;2023-05-02T04:56:28;13.80;99.90
46562;DHT22;32289;42.688;23.330;2023-05-02T05:00:10;15.10;99.90
46562;DHT22;32289;42.688;23.330;2023-05-02T05:03:51;16.70;94.30
46562;DHT22;32289;42.688;23.330;2023-05-02T05:07:31;17.40;87.40
46562;DHT22;32289;42.688;23.330;2023-05-02T05:11:12;17.40;83.10
46562;DHT22;32289;42.688;23.330;2023-05-02T05:14:53;17.70;81.80
46562;DHT22;32289;42.688;23.330;2023-05-02T05:18:34;17.20;82.30
46562;DHT22;32289;42.688;23.330;2023-05-02T05:22:20;16.60;81.80
46562;DHT22;32289;42.688;23.330;2023-05-02T05:26:12;16.00;84.80
46562;DHT22;32289;42.688;23.330;2023-05-02T05:29:53;16.90;81.90
46562;DHT22;32289;42.688;23.330;2023-05-02T05:33:37;15.90;83.60
46562;DHT22;32289;42.688;23.330;2023-05-02T05:37:19;17.60;76.60
46562;DHT22;32289;42.688;23.330;2023-05-02T05:41:00;17.20;77.00
46562;DHT22;32289;42.688;23.330;2023-05-02T05:44:41;18.10;73.50
46562;DHT22;32289;42.688;23.330;2023-05-02T05:48:24;19.40;69.10
46562;DHT22;32289;42.688;23.330;2023-05-02T05:52:05;19.60;66.70
46562;DHT22;32289;42.688;23.330;2023-05-02T05:55:46;19.70;66.70
46562;DHT22;32289;42.688;23.330;2023-05-02T05:59:27;19.10;66.60
46562;DHT22;32289;42.688;23.330;2023-05-02T06:03:07;21.00;61.60
46562;DHT22;32289;42.688;23.330;2023-05-02T06:06:48;20.20;61.50
46562;DHT22;32289;42.688;23.330;2023-05-02T06:10:30;20.70;62.10
46562;DHT22;32289;42.688;23.330;2023-05-02T06:14:12;20.40;61.50
46562;DHT22;32289;42.688;23.330;2023-05-02T06:17:52;20.80;59.80
46562;DHT22;32289;42.688;23.330;2023-05-02T06:21:35;20.00;60.00
46562;DHT22;32289;42.688;23.330;2023-05-02T06:25:16;19.90;60.30
46562;DHT22;32289;42.688;23.330;2023-05-02T06:28:57;20.00;59.80
46562;DHT22;32289;42.688;23.330;2023-05-02T06:32:38;21.30;58.10
46562;DHT22;32289;42.688;23.330;2023-05-02T06:36:18;19.80;59.40
46562;DHT22;32289;42.688;23.330;2023-05-02T06:39:59;21.00;58.40
46562;DHT22;32289;42.688;23.330;2023-05-02T06:43:40;21.20;56.70
46562;DHT22;32289;42.688;23.330;2023-05-02T06:47:21;20.70;57.70
46562;DHT22;32289;42.688;23.330;2023-05-02T06:51:03;22.20;56.00
46562;DHT22;32289;42.688;23.330;2023-05-02T06:54:44;21.30;57.70
46562;DHT22;32289;42.688;23.330;2023-05-02T06:58:25;22.10;54.60
46562;DHT22;32289;42.688;23.330;2023-05-02T07:02:06;22.00;54.20
46562;DHT22;32289;42.688;23.330;2023-05-02T07:05:46;22.90;52.10
46562;DHT22;32289;42.688;23.330;2023-05-02T07:09:27;21.40;53.90
46562;DHT22;32289;42.688;23.330;2023-05-02T07:13:08;20.30;56.30
46562;DHT22;32289;42.688;23.330;2023-05-02T07:16:48;21.30;56.30
46562;DHT22;32289;42.688;23.330;2023-05-02T07:20:29;22.80;52.30
46562;DHT22;32289;42.688;23.330;2023-05-02T07:24:10;22.30;52.10
46562;DHT22;32289;42.688;23.330;2023-05-02T07:27:51;23.10;51.40
46562;DHT22;32289;42.688;23.330;2023-05-02T07:31:31;22.30;52.40
46562;DHT22;32289;42.688;23.330;2023-05-02T07:35:12;21.70;52.10
46562;DHT22;32289;42.688;23.330;2023-05-02T07:38:53;24.00;50.40
46562;DHT22;32289;42.688;23.330;2023-05-02T07:42:34;23.60;50.40
46562;DHT22;32289;42.688;23.330;2023-05-02T07:46:15;23.10;50.40
46562;DHT22;32289;42.688;23.330;2023-05-02T07:49:56;24.00;48.50
46562;DHT22;32289;42.688;23.330;2023-05-02T07:53:36;23.20;50.10
46562;DHT22;32289;42.688;23.330;2023-05-02T07:57:18;21.20;51.20
46562;DHT22;32289;42.688;23.330;2023-05-02T08:00:58;23.50;48.90
46562;DHT22;32289;42.688;23.330;2023-05-02T08:04:39;23.90;48.90
46562;DHT22;32289;42.688;23.330;2023-05-02T08:08:20;24.00;47.70
46562;DHT22;32289;42.688;23.330;2023-05-02T08:12:01;23.10;50.10
46562;DHT22;32289;42.688;23.330;2023-05-02T08:15:42;22.80;49.50
46562;DHT22;32289;42.688;23.330;2023-05-02T08:19:23;20.70;52.60
46562;DHT22;32289;42.688;23.330;2023-05-02T08:23:04;20.90;52.50
46562;DHT22;32289;42.688;23.330;2023-05-02T08:26:44;23.20;50.50
46562;DHT22;32289;42.688;23.330;2023-05-02T08:30:25;22.10;48.80
46562;DHT22;32289;42.688;23.330;2023-05-02T08:34:06;21.20;52.30
46562;DHT22;32289;42.688;23.330;2023-05-02T08:37:46;24.90;47.30
46562;DHT22;32289;42.688;23.330;2023-05-02T08:41:28;23.40;48.20
46562;DHT22;32289;42.688;23.330;2023-05-02T08:45:12;23.80;47.50
46562;DHT22;32289;42.688;23.330;2023-05-02T08:48:54;20.20;52.60
46562;DHT22;32289;42.688;23.330;2023-05-02T08:52:38;20.80;52.00
46562;DHT22;32289;42.688;23.330;2023-05-02T08:56:19;22.00;49.80
46562;DHT22;32289;42.688;23.330;2023-05-02T09:00:00;21.40;50.70
46562;DHT22;32289;42.688;23.330;2023-05-02T09:03:43;23.90;47.00
46562;DHT22;32289;42.688;23.330;2023-05-02T09:07:25;21.90;50.30
46562;DHT22;32289;42.688;23.330;2023-05-02T09:11:08;23.70;47.80
46562;DHT22;32289;42.688;23.330;2023-05-02T09:15:10;23.00;47.20
46562;DHT22;32289;42.688;23.330;2023-05-02T09:18:57;21.70;49.40
46562;DHT22;32289;42.688;23.330;2023-05-02T09:22:38;22.20;49.80
46562;DHT22;32289;42.688;23.330;2023-05-02T09:26:22;19.70;52.10
46562;DHT22;32289;42.688;23.330;2023-05-02T09:30:24;20.10;51.20
46562;DHT22;32289;42.688;23.330;2023-05-02T09:34:10;20.70;50.20
46562;DHT22;32289;42.688;23.330;2023-05-02T09:41:40;21.20;48.80
46562;DHT22;32289;42.688;23.330;2023-05-02T09:45:24;21.30;49.50
46562;DHT22;32289;42.688;23.330;2023-05-02T09:49:05;22.20;48.20
46562;DHT22;32289;42.688;23.330;2023-05-02T09:53:00;21.70;49.00
46562;DHT22;32289;42.688;23.330;2023-05-02T09:56:54;23.20;46.70
46562;DHT22;32289;42.688;23.330;2023-05-02T10:00:42;22.50;47.60
46562;DHT22;32289;42.688;23.330;2023-05-02T10:04:24;22.00;48.40
46562;DHT22;32289;42.688;23.330;2023-05-02T10:08:06;22.10;46.60
46562;DHT22;32289;42.688;23.330;2023-05-02T10:11:52;21.30;48.60
46562;DHT22;32289;42.688;23.330;2023-05-02T10:15:37;21.40;47.90
46562;DHT22;32289;42.688;23.330;2023-05-02T10:19:37;21.10;48.50
46562;DHT22;32289;42.688;23.330;2023-05-02T10:23:19;20.90;49.10
46562;DHT22;32289;42.688;23.330;2023-05-02T10:27:01;20.90;48.60
46562;DHT22;32289;42.688;23.330;2023-05-02T10:30:44;21.70;47.20
46562;DHT22;32289;42.688;23.330;2023-05-02T10:34:26;21.50;47.40
46562;DHT22;32289;42.688;23.330;2023-05-02T10:38:07;21.80;47.80
46562;DHT22;32289;42.688;23.330;2023-05-02T10:41:48;20.90;47.90
46562;DHT22;32289;42.688;23.330;2023-05-02T10:45:32;21.40;47.80
46562;DHT22;32289;42.688;23.330;2023-05-02T10:49:13;22.20;47.40
46562;DHT22;32289;42.688;23.330;2023-05-02T10:52:54;22.00;47.30
46562;DHT22;32289;42.688;23.330;2023-05-02T10:57:01;22.40;45.20
46562;DHT22;32289;42.688;23.330;2023-05-02T11:00:42;21.80;47.30
46562;DHT22;32289;42.688;23.330;2023-05-02T11:04:23;21.60;47.80
46562;DHT22;32289;42.688;23.330;2023-05-02T11:12:00;21.40;47.90
46562;DHT22;32289;42.688;23.330;2023-05-02T11:19:22;20.40;49.00
46562;DHT22;32289;42.688;23.330;2023-05-02T11:35:19;21.30;48.80
46562;DHT22;32289;42.688;23.330;2023-05-02T11:39:01;21.20;49.40
46562;DHT22;32289;42.688;23.330;2023-05-02T11:42:42;20.60;49.10
46562;DHT22;32289;42.688;23.330;2023-05-02T11:46:23;20.90;49.00
46562;DHT22;32289;42.688;23.330;2023-05-02T11:50:04;20.90;48.60
46562;DHT22;32289;42.688;23.330;2023-05-02T11:53:45;21.40;48.50
46562;DHT22;32289;42.688;23.330;2023-05-02T11:57:26;21.50;48.70
46562;DHT22;32289;42.688;23.330;2023-05-02T12:04:52;20.90;49.20
46562;DHT22;32289;42.688;23.330;2023-05-02T12:08:33;20.60;49.30
46562;DHT22;32289;42.688;23.330;2023-05-02T12:12:14;20.20;50.00
46562;DHT22;32289;42.688;23.330;2023-05-02T12:15:58;21.10;49.30
46562;DHT22;32289;42.688;23.330;2023-05-02T12:19:39;21.10;49.10
46562;DHT22;32289;42.688;23.330;2023-05-02T12:23:22;20.80;49.20
46562;DHT22;32289;42.688;23.330;2023-05-02T12:27:14;20.20;49.90
46562;DHT22;32289;42.688;23.330;2023-05-02T12:30:55;20.00;49.60
46562;DHT22;32289;42.688;23.330;2023-05-02T12:34:36;20.20;49.40
46562;DHT22;32289;42.688;23.330;2023-05-02T12:38:19;20.10;49.20
46562;DHT22;32289;42.688;23.330;2023-05-02T12:42:12;20.60;48.90
46562;DHT22;32289;42.688;23.330;2023-05-02T12:46:09;20.30;48.60
46562;DHT22;32289;42.688;23.330;2023-05-02T12:49:55;20.30;48.60
46562;DHT22;32289;42.688;23.330;2023-05-02T12:53:41;20.20;48.10
46562;DHT22;32289;42.688;23.330;2023-05-02T12:57:23;20.40;47.70
46562;DHT22;32289;42.688;23.330;2023-05-02T13:01:06;20.20;47.40
46562;DHT22;32289;42.688;23.330;2023-05-02T13:04:48;20.00;47.80
46562;DHT22;32289;42.688;23.330;2023-05-02T13:08:28;20.40;47.90
46562;DHT22;32289;42.688;23.330;2023-05-02T13:12:09;20.00;48.60
46562;DHT22;32289;42.688;23.330;2023-05-02T13:15:51;19.90;48.30
46562;DHT22;32289;42.688;23.330;2023-05-02T13:19:31;20.10;47.70
46562;DHT22;32289;42.688;23.330;2023-05-02T13:23:12;20.10;48.30
46562;DHT22;32289;42.688;23.330;2023-05-02T13:26:53;20.30;48.10
46562;DHT22;32289;42.688;23.330;2023-05-02T13:30:34;20.10;48.30
46562;DHT22;32289;42.688;23.330;2023-05-02T13:34:14;20.20;48.00
46562;DHT22;32289;42.688;23.330;2023-05-02T13:37:55;19.70;48.30
46562;DHT22;32289;42.688;23.330;2023-05-02T13:41:35;20.20;48.30
46562;DHT22;32289;42.688;23.330;2023-05-02T13:45:16;20.00;48.20
46562;DHT22;32289;42.688;23.330;2023-05-02T13:48:57;20.10;47.60
46562;DHT22;32289;42.688;23.330;2023-05-02T13:52:38;19.80;48.00
46562;DHT22;32289;42.688;23.330;2023-05-02T13:56:18;20.10;47.90
46562;DHT22;32289;42.688;23.330;2023-05-02T14:00:00;20.10;47.50
46562;DHT22;32289;42.688;23.330;2023-05-02T14:03:41;20.20;47.80
46562;DHT22;32289;42.688;23.330;2023-05-02T14:07:22;20.30;47.30
46562;DHT22;32289;42.688;23.330;2023-05-02T14:11:02;20.10;47.60
46562;DHT22;32289;42.688;23.330;2023-05-02T14:14:44;19.70;47.50
46562;DHT22;32289;42.688;23.330;2023-05-02T14:18:25;19.60;48.00
46562;DHT22;32289;42.688;23.330;2023-05-02T14:22:06;19.80;47.60
46562;DHT22;32289;42.688;23.330;2023-05-02T14:25:46;19.90;47.40
46562;DHT22;32289;42.688;23.330;2023-05-02T14:29:27;19.80;47.40
46562;DHT22;32289;42.688;23.330;2023-05-02T14:33:08;19.80;47.40
46562;DHT22;32289;42.688;23.330;2023-05-02T14:36:48;19.80;47.80
46562;DHT22;32289;42.688;23.330;2023-05-02T14:40:30;19.70;47.80
46562;DHT22;32289;42.688;23.330;2023-05-02T14:44:11;19.80;47.60
46562;DHT22;32289;42.688;23.330;2023-05-02T14:47:51;19.60;47.50
46562;DHT22;32289;42.688;23.330;2023-05-02T14:51:32;19.70;47.70
46562;DHT22;32289;42.688;23.330;2023-05-02T14:55:13;19.70;47.80
46562;DHT22;32289;42.688;23.330;2023-05-02T14:58:54;19.40;47.70
46562;DHT22;32289;42.688;23.330;2023-05-02T15:02:35;19.50;48.10
46562;DHT22;32289;42.688;23.330;2023-05-02T15:06:15;19.50;48.00
46562;DHT22;32289;42.688;23.330;2023-05-02T15:09:56;19.50;48.00
46562;DHT22;32289;42.688;23.330;2023-05-02T15:13:37;19.50;48.00
46562;DHT22;32289;42.688;23.330;2023-05-02T15:17:17;19.50;48.30
46562;DHT22;32289;42.688;23.330;2023-05-02T15:20:58;19.40;48.10
46562;DHT22;32289;42.688;23.330;2023-05-02T15:24:39;19.40;48.10
46562;DHT22;32289;42.688;23.330;2023-05-02T15:28:20;19.20;48.10
46562;DHT22;32289;42.688;23.330;2023-05-02T15:32:00;19.40;48.70
46562;DHT22;32289;42.688;23.330;2023-05-02T15:35:54;19.40;48.50
46562;DHT22;32289;42.688;23.330;2023-05-02T15:39:35;19.50;48.40
46562;DHT22;32289;42.688;23.330;2023-05-02T15:43:16;19.30;47.40
46562;DHT22;32289;42.688;23.330;2023-05-02T15:46:57;19.30;47.00
46562;DHT22;32289;42.688;23.330;2023-05-02T15:50:37;19.20;47.20
46562;DHT22;32289;42.688;23.330;2023-05-02T15:54:18;19.10;46.80
46562;DHT22;32289;42.688;23.330;2023-05-02T15:57:59;19.00;47.20
46562;DHT22;32289;42.688;23.330;2023-05-02T16:01:40;19.00;47.50
46562;DHT22;32289;42.688;23.330;2023-05-02T16:05:20;18.80;47.30
46562;DHT22;32289;42.688;23.330;2023-05-02T16:09:02;18.80;47.50
46562;DHT22;32289;42.688;23.330;2023-05-02T16:12:43;18.70;47.70
46562;DHT22;32289;42.688;23.330;2023-05-02T16:16:23;18.70;47.80
46562;DHT22;32289;42.688;23.330;2023-05-02T16:20:05;18.60;48.10
46562;DHT22;32289;42.688;23.330;2023-05-02T16:23:46;18.40;48.20
46562;DHT22;32289;42.688;23.330;2023-05-02T16:27:27;18.30;48.60
46562;DHT22;32289;42.688;23.330;2023-05-02T16:31:08;18.30;48.80
46562;DHT22;32289;42.688;23.330;2023-05-02T16:34:50;18.20;48.80
46562;DHT22;32289;42.688;23.330;2023-05-02T16:38:32;18.10;49.10
46562;DHT22;32289;42.688;23.330;2023-05-02T16:42:12;18.10;49.30
46562;DHT22;32289;42.688;23.330;2023-05-02T16:46:04;18.00;49.00
46562;DHT22;32289;42.688;23.330;2023-05-02T16:49:45;17.90;49.30
46562;DHT22;32289;42.688;23.330;2023-05-02T16:53:26;17.80;49.70
46562;DHT22;32289;42.688;23.330;2023-05-02T16:57:08;17.70;49.40
46562;DHT22;32289;42.688;23.330;2023-05-02T17:00:49;17.60;49.80
46562;DHT22;32289;42.688;23.330;2023-05-02T17:04:29;17.50;49.60
46562;DHT22;32289;42.688;23.330;2023-05-02T17:08:10;17.40;49.60
46562;DHT22;32289;42.688;23.330;2023-05-02T17:11:51;17.50;49.80
46562;DHT22;32289;42.688;23.330;2023-05-02T17:15:35;17.40;49.60
46562;DHT22;32289;42.688;23.330;2023-05-02T17:19:17;17.40;49.90
46562;DHT22;32289;42.688;23.330;2023-05-02T17:22:58;17.30;50.00
46562;DHT22;32289;42.688;23.330;2023-05-02T17:26:40;17.30;50.10
46562;DHT22;32289;42.688;23.330;2023-05-02T17:30:21;17.10;50.50
46562;DHT22;32289;42.688;23.330;2023-05-02T17:34:03;17.00;50.70
46562;DHT22;32289;42.688;23.330;2023-05-02T17:37:43;16.90;51.10
46562;DHT22;32289;42.688;23.330;2023-05-02T17:41:25;16.90;51.20
46562;DHT22;32289;42.688;23.330;2023-05-02T17:45:06;16.80;51.50
46562;DHT22;32289;42.688;23.330;2023-05-02T17:48:47;16.80;51.70
46562;DHT22;32289;42.688;23.330;2023-05-02T17:52:28;16.70;51.90
46562;DHT22;32289;42.688;23.330;2023-05-02T17:56:09;16.60;52.20
46562;DHT22;32289;42.688;23.330;2023-05-02T17:59:50;16.50;53.00
46562;DHT22;32289;42.688;23.330;2023-05-02T18:03:36;16.40;52.70
46562;DHT22;32289;42.688;23.330;2023-05-02T18:07:17;16.40;53.00
46562;DHT22;32289;42.688;23.330;2023-05-02T18:11:03;16.40;53.30
46562;DHT22;32289;42.688;23.330;2023-05-02T18:14:43;16.20;53.30
46562;DHT22;32289;42.688;23.330;2023-05-02T18:18:24;16.20;53.60
46562;DHT22;32289;42.688;23.330;2023-05-02T18:22:05;16.30;53.90
46562;DHT22;32289;42.688;23.330;2023-05-02T18:25:46;16.20;54.10
46562;DHT22;32289;42.688;23.330;2023-05-02T18:29:29;16.10;54.40
46562;DHT22;32289;42.688;23.330;2023-05-02T18:33:10;16.10;54.70
46562;DHT22;32289;42.688;23.330;2023-05-02T18:36:51;16.00;55.00
46562;DHT22;32289;42.688;23.330;2023-05-02T18:40:32;15.90;55.30
46562;DHT22;32289;42.688;23.330;2023-05-02T18:44:12;15.90;55.70
46562;DHT22;32289;42.688;23.330;2023-05-02T18:47:53;15.80;56.40
46562;DHT22;32289;42.688;23.330;2023-05-02T18:51:34;15.80;55.60
46562;DHT22;32289;42.688;23.330;2023-05-02T18:55:15;15.80;55.70
46562;DHT22;32289;42.688;23.330;2023-05-02T18:58:56;15.70;55.90
46562;DHT22;32289;42.688;23.330;2023-05-02T19:02:36;15.70;55.90
46562;DHT22;32289;42.688;23.330;2023-05-02T19:06:17;15.60;56.00
46562;DHT22;32289;42.688;23.330;2023-05-02T19:09:58;15.60;56.20
46562;DHT22;32289;42.688;23.330;2023-05-02T19:13:39;15.50;56.40
46562;DHT22;32289;42.688;23.330;2023-05-02T19:17:20;15.50;56.30
46562;DHT22;32289;42.688;23.330;2023-05-02T19:21:11;15.40;56.20
46562;DHT22;32289;42.688;23.330;2023-05-02T19:24:52;15.50;55.60
46562;DHT22;32289;42.688;23.330;2023-05-02T19:28:33;15.60;55.40
46562;DHT22;32289;42.688;23.330;2023-05-02T19:32:14;15.60;55.50
46562;DHT22;32289;42.688;23.330;2023-05-02T19:35:55;15.60;55.00
46562;DHT22;32289;42.688;23.330;2023-05-02T19:39:37;15.60;55.10
46562;DHT22;32289;42.688;23.330;2023-05-02T19:43:18;15.60;55.60
46562;DHT22;32289;42.688;23.330;2023-05-02T19:46:59;15.50;55.30
46562;DHT22;32289;42.688;23.330;2023-05-02T19:50:39;15.40;55.90
46562;DHT22;32289;42.688;23.330;2023-05-02T19:54:20;15.30;55.90
46562;DHT22;32289;42.688;23.330;2023-05-02T19:58:01;15.30;55.50
46562;DHT22;32289;42.688;23.330;2023-05-02T20:01:43;15.30;55.10
46562;DHT22;32289;42.688;23.330;2023-05-02T20:05:25;15.30;55.00
46562;DHT22;32289;42.688;23.330;2023-05-02T20:09:06;15.20;55.50
46562;DHT22;32289;42.688;23.330;2023-05-02T20:12:47;15.10;55.70
46562;DHT22;32289;42.688;23.330;2023-05-02T20:16:28;15.10;56.20
46562;DHT22;32289;42.688;23.330;2023-05-02T20:20:13;14.80;56.10
46562;DHT22;32289;42.688;23.330;2023-05-02T20:23:53;14.70;56.60
46562;DHT22;32289;42.688;23.330;2023-05-02T20:27:34;14.60;57.00
46562;DHT22;32289;42.688;23.330;2023-05-02T20:31:15;14.60;57.30
46562;DHT22;32289;42.688;23.330;2023-05-02T20:34:55;14.60;57.30
46562;DHT22;32289;42.688;23.330;2023-05-02T20:38:37;14.50;57.80
46562;DHT22;32289;42.688;23.330;2023-05-02T20:42:23;14.40;58.40
46562;DHT22;32289;42.688;23.330;2023-05-02T20:46:12;14.40;59.40
46562;DHT22;32289;42.688;23.330;2023-05-02T20:49:56;14.40;59.00
46562;DHT22;32289;42.688;23.330;2023-05-02T20:53:37;14.40;59.10
46562;DHT22;32289;42.688;23.330;2023-05-02T20:57:18;14.30;59.60
46562;DHT22;32289;42.688;23.330;2023-05-02T21:00:59;14.30;59.80
46562;DHT22;32289;42.688;23.330;2023-05-02T21:04:40;14.30;59.80
46562;DHT22;32289;42.688;23.330;2023-05-02T21:08:21;14.30;60.10
46562;DHT22;32289;42.688;23.330;2023-05-02T21:12:02;14.20;60.50
46562;DHT22;32289;42.688;23.330;2023-05-02T21:15:43;14.20;60.60
46562;DHT22;32289;42.688;23.330;2023-05-02T21:19:24;14.20;61.00
46562;DHT22;32289;42.688;23.330;2023-05-02T21:23:04;14.00;61.30
46562;DHT22;32289;42.688;23.330;2023-05-02T21:26:45;14.00;61.60
46562;DHT22;32289;42.688;23.330;2023-05-02T21:30:26;13.90;61.90
46562;DHT22;32289;42.688;23.330;2023-05-02T21:34:07;14.00;62.00
46562;DHT22;32289;42.688;23.330;2023-05-02T21:37:47;13.90;62.40
46562;DHT22;32289;42.688;23.330;2023-05-02T21:41:28;13.80;62.30
46562;DHT22;32289;42.688;23.330;2023-05-02T21:45:09;13.80;62.40
46562;DHT22;32289;42.688;23.330;2023-05-02T21:48:50;13.80;62.20
46562;DHT22;32289;42.688;23.330;2023-05-02T21:52:31;13.80;62.50
46562;DHT22;32289;42.688;23.330;2023-05-02T21:56:11;13.70;63.10
46562;DHT22;32289;42.688;23.330;2023-05-02T21:59:52;13.60;63.50
46562;DHT22;32289;42.688;23.330;2023-05-02T22:03:33;13.60;63.50
46562;DHT22;32289;42.688;23.330;2023-05-02T22:07:14;13.50;63.70
46562;DHT22;32289;42.688;23.330;2023-05-02T22:10:55;13.50;63.90
46562;DHT22;32289;42.688;23.330;2023-05-02T22:14:37;13.40;64.00
46562;DHT22;32289;42.688;23.330;2023-05-02T22:18:17;13.40;63.60
46562;DHT22;32289;42.688;23.330;2023-05-02T22:21:59;13.50;63.20
46562;DHT22;32289;42.688;23.330;2023-05-02T22:25:43;13.40;62.90
46562;DHT22;32289;42.688;23.330;2023-05-02T22:29:25;13.50;63.20
46562;DHT22;32289;42.688;23.330;2023-05-02T22:33:06;13.40;63.20
46562;DHT22;32289;42.688;23.330;2023-05-02T22:36:47;13.40;63.30
46562;DHT22;32289;42.688;23.330;2023-05-02T22:40:28;13.30;62.80
46562;DHT22;32289;42.688;23.330;2023-05-02T22:44:10;13.30;63.00
46562;DHT22;32289;42.688;23.330;2023-05-02T22:47:51;13.30;63.10
46562;DHT22;32289;42.688;23.330;2023-05-02T22:51:32;13.30;63.50
46562;DHT22;32289;42.688;23.330;2023-05-02T22:55:12;13.20;63.50
46562;DHT22;32289;42.688;23.330;2023-05-02T22:58:53;13.20;63.60
46562;DHT22;32289;42.688;23.330;2023-05-02T23:02:35;13.10;63.00
46562;DHT22;32289;42.688;23.330;2023-05-02T23:06:16;13.10;62.80
46562;DHT22;32289;42.688;23.330;2023-05-02T23:09:56;13.10;62.90
46562;DHT22;32289;42.688;23.330;2023-05-02T23:13:37;13.30;62.70
46562;DHT22;32289;42.688;23.330;2023-05-02T23:17:18;13.20;62.80
46562;DHT22;32289;42.688;23.330;2023-05-02T23:20:58;13.30;62.10
46562;DHT22;32289;42.688;23.330;2023-05-02T23:24:39;13.10;61.00
46562;DHT22;32289;42.688;23.330;2023-05-02T23:28:20;13.00;59.80
46562;DHT22;32289;42.688;23.330;2023-05-02T23:32:01;12.90;59.90
46562;DHT22;32289;42.688;23.330;2023-05-02T23:35:42;12.70;59.50
46562;DHT22;32289;42.688;23.330;2023-05-02T23:39:24;12.70;59.30
46562;DHT22;32289;42.688;23.330;2023-05-02T23:43:05;12.70;58.90
46562;DHT22;32289;42.688;23.330;2023-05-02T23:46:46;12.70;58.70